Terminal Aerodrome Forecast
Issued by NWS

Home | Current Version | Previous Version | Text Only | Print | Product List | Glossary On
Versions: 1 2 3 4 5 6 7 8 9 10 11 12 13 14 15 16 17
000
FTUS42 KMLB 301504 AAA
TAFLEE
TAF AMD
KLEE 301504Z 3015/3112 VRB04KT P6SM VCSH BKN040
     FM301700 19004KT P6SM VCTS SCT030CB BKN050
      TEMPO 3018/3020 VRB15G25KT 3SM TSRA SCT020 BKN030CB
     FM302000 17005KT P6SM VCTS SCT030CB SCT050 BKN250
     FM310100 15004KT P6SM FEW030 SCT100 BKN250
     FM310600 16004KT P6SM SCT250=

USA.gov is the U.S. government's official web portal to all federal, state and local government web resources and services.